Time;durP1;ratioP1;P1;durP2;ratioP2;P2;SDS_P1;SDS_P2;PMS_P1;PMS_P2;Temp;Humidity;BMP_temperature;BMP_pressure;BME280_temperature;BME280_humidity;BME280_pressure;Samples;Min_cycle;Max_cycle;Signal;HPM_P1;HPM_P2
2022/12/07 00:01:34;;;;;;;8.05;1.15;;;4.50;99.90;;;;;;4973647;28;20130;-80
2022/12/07 00:04:04;;;;;;;7.80;1.52;;;4.50;99.90;;;;;;4957491;28;20050;-80
2022/12/07 00:06:31;;;;;;;8.80;1.52;;;4.50;99.90;;;;;;4973533;28;20072;-79
2022/12/07 00:08:57;;;;;;;3.90;1.38;;;4.50;99.90;;;;;;4960375;28;20089;-80
2022/12/07 00:11:23;;;;;;;10.35;1.48;;;4.80;99.90;;;;;;4968274;28;20479;-80
2022/12/07 00:13:58;;;;;;;7.35;1.30;;;4.40;99.90;;;;;;4990714;28;20078;-80
2022/12/07 00:16:27;;;;;;;6.60;1.50;;;4.40;99.90;;;;;;5003688;28;20528;-80
2022/12/07 00:18:52;;;;;;;6.50;1.17;;;4.40;99.90;;;;;;4983020;28;20034;-79
2022/12/07 00:21:22;;;;;;;7.13;1.98;;;5.10;99.90;;;;;;4984056;28;20039;-79
2022/12/07 00:23:49;;;;;;;7.55;1.42;;;4.40;99.90;;;;;;4976918;28;20438;-80
2022/12/07 00:26:27;;;;;;;8.10;1.48;;;4.40;99.90;;;;;;4964362;28;20042;-80
2022/12/07 00:28:56;;;;;;;9.68;1.48;;;5.90;99.90;;;;;;4992175;28;20035;-80
2022/12/07 00:31:24;;;;;;;9.68;1.35;;;4.30;99.90;;;;;;4976896;28;20423;-79
2022/12/07 00:33:50;;;;;;;6.68;1.35;;;4.70;99.90;;;;;;4976831;28;20043;-80
2022/12/07 00:36:18;;;;;;;8.13;1.58;;;4.30;99.90;;;;;;4982602;28;20034;-79
2022/12/07 00:38:44;;;;;;;5.20;1.10;;;4.30;99.90;;;;;;4980022;28;20406;-80
2022/12/07 00:41:16;;;;;;;8.68;1.35;;;4.30;99.90;;;;;;4963857;28;20133;-80
2022/12/07 00:43:43;;;;;;;9.35;1.40;;;4.50;99.90;;;;;;4979932;28;20112;-80
2022/12/07 00:46:10;;;;;;;8.77;1.73;;;4.20;99.90;;;;;;4964050;28;20498;-80
2022/12/07 00:48:36;;;;;;;7.03;1.30;;;4.20;99.90;;;;;;4995806;28;20520;-80
2022/12/07 00:51:02;;;;;;;7.65;1.60;;;4.20;99.90;;;;;;4962679;28;20034;-79
2022/12/07 00:53:28;;;;;;;7.07;1.13;;;4.20;99.90;;;;;;4992701;28;20509;-80
2022/12/07 00:55:55;;;;;;;8.48;1.50;;;4.10;99.90;;;;;;4968605;28;20106;-79
2022/12/07 00:58:22;;;;;;;7.90;1.25;;;5.60;99.90;;;;;;4960835;28;20057;-79
2022/12/07 01:00:47;;;;;;;11.60;1.73;;;4.10;99.90;;;;;;4978621;28;20053;-79
2022/12/07 01:03:14;;;;;;;10.65;1.73;;;4.10;99.90;;;;;;4946874;28;20042;-79
2022/12/07 01:05:48;;;;;;;8.35;1.85;;;4.10;99.90;;;;;;4978124;28;20493;-79
2022/12/07 01:08:14;;;;;;;6.60;1.45;;;4.10;99.90;;;;;;4979013;28;20495;-79
2022/12/07 01:10:39;;;;;;;9.30;1.50;;;4.00;99.90;;;;;;4978859;28;20043;-80
2022/12/07 01:13:05;;;;;;;7.32;1.23;;;4.00;99.90;;;;;;4959888;28;20074;-79
2022/12/07 01:15:31;;;;;;;5.78;1.42;;;5.50;99.90;;;;;;4968836;28;20178;-79
2022/12/07 01:17:56;;;;;;;7.30;1.25;;;4.00;99.90;;;;;;4991534;28;20038;-80
2022/12/07 01:20:22;;;;;;;10.10;2.25;;;4.30;99.90;;;;;;5010800;28;20406;-79
2022/12/07 01:22:48;;;;;;;5.45;1.10;;;4.10;99.90;;;;;;4963292;28;20046;-80
2022/12/07 01:25:14;;;;;;;9.45;1.77;;;4.00;99.90;;;;;;4995899;28;20035;-80
2022/12/07 01:27:40;;;;;;;9.02;1.48;;;4.00;99.90;;;;;;4962910;28;20616;-79
2022/12/07 01:30:07;;;;;;;5.65;1.17;;;4.00;99.90;;;;;;4978560;28;20039;-80
2022/12/07 01:32:33;;;;;;;6.60;1.77;;;4.00;99.90;;;;;;4994886;28;20070;-80
2022/12/07 01:34:59;;;;;;;6.65;1.10;;;3.90;99.90;;;;;;4990345;28;20454;-80
2022/12/07 01:37:25;;;;;;;5.80;1.23;;;4.30;99.90;;;;;;4976206;28;20046;-80
2022/12/07 01:39:51;;;;;;;7.82;1.10;;;3.90;99.90;;;;;;4979090;28;20046;-80
2022/12/07 01:42:18;;;;;;;5.15;1.70;;;5.00;99.90;;;;;;4962658;28;20126;-80
2022/12/07 01:45:18;;;;;;;7.57;1.30;;;3.80;99.90;;;;;;4946186;28;20039;-79
2022/12/07 01:47:55;;;;;;;8.63;1.80;;;3.80;99.90;;;;;;4977608;28;20506;-80
2022/12/07 01:50:24;;;;;;;11.82;1.60;;;5.00;99.90;;;;;;4994711;28;20549;-80
2022/12/07 01:52:52;;;;;;;9.88;1.90;;;4.80;99.90;;;;;;4994521;28;20466;-79
2022/12/07 01:55:18;;;;;;;6.68;1.33;;;3.70;99.90;;;;;;4991002;28;20038;-80
2022/12/07 01:57:48;;;;;;;9.57;1.55;;;5.00;99.90;;;;;;4959158;28;20043;-79
2022/12/07 02:00:15;;;;;;;7.65;1.30;;;3.70;99.90;;;;;;4958891;28;20039;-79
2022/12/07 02:02:57;;;;;;;7.60;1.40;;;3.70;99.90;;;;;;4966007;28;20541;-80
2022/12/07 02:05:24;;;;;;;7.93;1.45;;;3.70;99.90;;;;;;4974770;28;20089;-80
2022/12/07 02:07:52;;;;;;;7.47;1.23;;;4.40;99.90;;;;;;4991167;28;20512;-80
2022/12/07 02:10:28;;;;;;;8.90;1.27;;;4.40;99.90;;;;;;4973527;28;20042;-79
2022/12/07 02:13:04;;;;;;;6.63;1.20;;;3.70;99.90;;;;;;4974794;28;20050;-79
2022/12/07 02:15:42;;;;;;;;;;;4.10;99.90;;;;;;4959364;28;20520;-79
2022/12/07 02:18:35;;;;;;;6.95;1.23;;;3.70;99.90;;;;;;4978226;28;20022;-79
2022/12/07 02:21:16;;;;;;;9.30;1.63;;;3.70;99.90;;;;;;4974850;28;20121;-79
2022/12/07 02:23:50;;;;;;;8.25;1.08;;;3.70;99.90;;;;;;4966350;28;20038;-79
2022/12/07 02:26:48;;;;;;;9.10;1.40;;;3.60;99.90;;;;;;4976984;28;20053;-79
2022/12/07 02:29:18;;;;;;;8.52;1.52;;;3.60;99.90;;;;;;4991187;28;20455;-80
2022/12/07 02:31:53;;;;;;;5.82;1.00;;;5.10;99.90;;;;;;4974514;28;20089;-80
2022/12/07 02:34:31;;;;;;;6.05;1.42;;;3.60;99.90;;;;;;4987342;28;20129;-80
2022/12/07 02:37:03;;;;;;;9.13;1.10;;;3.70;99.90;;;;;;4993003;28;20435;-79
2022/12/07 02:39:40;;;;;;;8.80;1.15;;;5.00;99.90;;;;;;4989775;28;20043;-80
2022/12/07 02:42:30;;;;;;;4.35;1.20;;;3.80;99.90;;;;;;4958134;28;20042;-79
2022/12/07 02:44:56;;;;;;;4.75;0.98;;;3.70;99.90;;;;;;4958939;28;20085;-80
2022/12/07 02:47:24;;;;;;;8.40;1.60;;;3.70;99.90;;;;;;4958240;28;20043;-80
2022/12/07 02:49:51;;;;;;;11.32;1.10;;;3.70;99.90;;;;;;4986155;28;20073;-80
2022/12/07 02:52:16;;;;;;;8.20;1.20;;;4.70;99.90;;;;;;4965022;28;20035;-80
2022/12/07 02:54:42;;;;;;;6.78;0.98;;;3.70;99.90;;;;;;4954008;28;20129;-80
2022/12/07 02:57:48;;;;;;;8.90;1.52;;;4.70;99.90;;;;;;4977227;28;20042;-80
2022/12/07 03:00:19;;;;;;;7.85;0.98;;;3.80;99.90;;;;;;4983055;28;20047;-80
2022/12/07 03:03:03;;;;;;;5.85;1.15;;;3.80;99.90;;;;;;4968342;28;20080;-79
2022/12/07 03:05:41;;;;;;;8.45;1.13;;;3.80;99.90;;;;;;4993011;28;20046;-80
2022/12/07 03:08:12;;;;;;;8.68;1.17;;;3.80;99.90;;;;;;4977353;28;20097;-78
2022/12/07 03:10:57;;;;;;;13.32;1.23;;;3.90;99.90;;;;;;4993485;28;20518;-78
2022/12/07 03:13:39;;;;;;;9.88;1.30;;;3.90;99.90;;;;;;4975341;28;20113;-78
2022/12/07 03:16:35;;;;;;;5.68;1.20;;;5.30;99.90;;;;;;4976834;28;20043;-78
2022/12/07 03:19:27;;;;;;;7.93;1.67;;;4.00;99.90;;;;;;4987382;28;20456;-79
2022/12/07 03:22:11;;;;;;;9.30;1.40;;;5.20;99.90;;;;;;4973599;28;20141;-78
2022/12/07 03:24:46;;;;;;;7.88;1.20;;;4.00;99.90;;;;;;4973118;28;20407;-78
2022/12/07 03:27:21;;;;;;;7.85;1.30;;;4.50;99.90;;;;;;4969042;28;20070;-79
2022/12/07 03:29:53;;;;;;;6.32;0.82;;;5.10;99.90;;;;;;4990889;28;20041;-78
2022/12/07 03:32:32;;;;;;;4.70;0.93;;;5.60;99.90;;;;;;4992083;28;20045;-78
2022/12/07 03:35:12;;;;;;;6.93;1.40;;;4.10;99.90;;;;;;4994726;28;20096;-78
2022/12/07 03:37:49;;;;;;;10.38;1.40;;;4.00;99.90;;;;;;4961277;28;20034;-79
2022/12/07 03:40:47;;;;;;;4.72;1.10;;;4.80;99.90;;;;;;4992453;28;20084;-78
2022/12/07 03:43:13;;;;;;;7.22;1.00;;;4.10;99.90;;;;;;4939825;28;20050;-79
2022/12/07 03:45:58;;;;;;;7.90;1.45;;;4.00;99.90;;;;;;4975377;28;20030;-78
2022/12/07 03:48:53;;;;;;;9.50;1.40;;;4.00;99.90;;;;;;4972883;28;20046;-78
2022/12/07 03:51:28;;;;;;;5.40;1.10;;;3.90;99.90;;;;;;4972123;28;20039;-78
2022/12/07 03:54:05;;;;;;;8.52;1.02;;;3.90;99.90;;;;;;4991814;28;20062;-78
2022/12/07 03:56:32;;;;;;;9.50;1.08;;;3.90;99.90;;;;;;4978513;28;20129;-78
2022/12/07 03:58:58;;;;;;;4.85;0.80;;;4.10;99.90;;;;;;4997316;28;20038;-79
2022/12/07 04:01:24;;;;;;;4.60;0.82;;;3.90;99.90;;;;;;4987956;28;20047;-79
2022/12/07 04:03:50;;;;;;;2.80;1.00;;;3.90;99.90;;;;;;4970423;28;20046;-78
2022/12/07 04:06:16;;;;;;;4.93;1.20;;;4.60;99.90;;;;;;4963452;28;20046;-78
2022/12/07 04:08:41;;;;;;;10.02;1.45;;;3.90;99.90;;;;;;4977437;28;20035;-78
2022/12/07 04:11:07;;;;;;;8.63;1.35;;;3.90;99.90;;;;;;4961307;28;20046;-78
2022/12/07 04:14:18;;;;;;;6.32;1.00;;;3.80;99.90;;;;;;4948465;28;20038;-79
2022/12/07 04:16:18;;;;;;;8.13;1.05;;;3.80;99.90;;;;;;4990324;28;20051;-78
2022/12/07 04:18:44;;;;;;;3.75;0.95;;;3.80;99.90;;;;;;4978137;28;20176;-79
2022/12/07 04:21:10;;;;;;;8.05;1.02;;;3.90;99.90;;;;;;4991299;28;20125;-78
2022/12/07 04:23:36;;;;;;;9.50;1.50;;;3.70;99.90;;;;;;4979998;28;20042;-78
2022/12/07 04:26:01;;;;;;;7.20;1.45;;;4.50;99.90;;;;;;4979487;28;20042;-79
2022/12/07 04:28:27;;;;;;;12.00;1.73;;;4.30;99.90;;;;;;4978167;28;20038;-79
2022/12/07 04:30:53;;;;;;;4.80;1.00;;;3.70;99.90;;;;;;4979633;28;20042;-79
2022/12/07 04:33:18;;;;;;;4.70;1.05;;;3.60;99.90;;;;;;4947309;28;20039;-78
2022/12/07 04:35:44;;;;;;;8.98;1.35;;;4.70;99.90;;;;;;4963600;28;20053;-78
2022/12/07 04:38:09;;;;;;;5.28;1.30;;;3.60;99.90;;;;;;4977241;28;20066;-78
2022/12/07 04:40:35;;;;;;;7.30;1.10;;;3.60;99.90;;;;;;4963858;28;20049;-79
2022/12/07 04:43:01;;;;;;;9.23;1.33;;;4.50;99.90;;;;;;4977476;28;20046;-78
2022/12/07 04:45:26;;;;;;;7.55;1.52;;;4.00;99.90;;;;;;4975453;28;20403;-79
2022/12/07 04:47:52;;;;;;;7.38;1.05;;;3.70;99.90;;;;;;4944463;28;20093;-78
2022/12/07 04:50:18;;;;;;;5.80;0.90;;;4.00;99.90;;;;;;4944213;28;20043;-78
2022/12/07 04:52:43;;;;;;;6.07;1.08;;;3.50;99.90;;;;;;4960669;28;20110;-79
2022/12/07 04:55:09;;;;;;;9.70;1.65;;;3.50;99.90;;;;;;4976533;28;20049;-78
2022/12/07 04:57:35;;;;;;;10.88;1.15;;;3.50;99.90;;;;;;4962058;28;20046;-78
2022/12/07 05:00:00;;;;;;;8.55;1.40;;;3.80;99.90;;;;;;4944209;28;20047;-79
2022/12/07 05:02:26;;;;;;;4.75;1.00;;;3.40;99.90;;;;;;4976301;28;20046;-79
2022/12/07 05:04:52;;;;;;;5.78;1.23;;;3.50;99.90;;;;;;4990686;28;20395;-78
2022/12/07 05:07:17;;;;;;;8.88;1.58;;;3.40;99.90;;;;;;4960893;28;20038;-79
2022/12/07 05:09:43;;;;;;;8.25;1.27;;;3.40;99.90;;;;;;4930839;28;20610;-79
2022/12/07 05:12:09;;;;;;;6.38;0.98;;;3.50;99.90;;;;;;4965109;28;20050;-78
2022/12/07 05:14:35;;;;;;;5.15;0.90;;;3.40;99.90;;;;;;4971722;28;20050;-78
2022/12/07 05:17:00;;;;;;;9.27;1.75;;;3.40;99.90;;;;;;4947153;28;20050;-78
2022/12/07 05:19:26;;;;;;;6.05;0.90;;;4.60;99.90;;;;;;4973575;28;20517;-78
2022/12/07 05:21:52;;;;;;;8.60;1.30;;;3.40;99.90;;;;;;4979456;28;20054;-78
2022/12/07 05:24:17;;;;;;;9.00;1.42;;;3.40;99.90;;;;;;4994330;28;20548;-78
2022/12/07 05:26:44;;;;;;;9.93;1.25;;;3.40;99.90;;;;;;4991680;28;20132;-78
2022/12/07 05:29:15;;;;;;;9.63;1.40;;;3.70;99.90;;;;;;4973065;28;20118;-78
2022/12/07 05:31:41;;;;;;;7.78;1.27;;;4.00;99.90;;;;;;4977582;28;20041;-78
2022/12/07 05:34:07;;;;;;;6.90;1.73;;;3.80;99.90;;;;;;4959837;28;20050;-78
2022/12/07 05:36:33;;;;;;;14.25;1.50;;;3.80;99.90;;;;;;4978997;28;20046;-78
2022/12/07 05:38:59;;;;;;;4.68;1.30;;;3.40;99.90;;;;;;4962098;28;20482;-78
2022/12/07 05:44:10;;;;;;;8.57;1.60;;;4.00;99.90;;;;;;4994668;28;20482;-78
2022/12/07 05:46:35;;;;;;;7.82;1.10;;;4.30;99.90;;;;;;4993778;28;20056;-79
2022/12/07 05:49:01;;;;;;;9.30;1.10;;;4.10;99.90;;;;;;4945987;28;20031;-79
2022/12/07 05:51:27;;;;;;;7.53;1.80;;;4.60;99.90;;;;;;4994851;28;20390;-79
2022/12/07 05:53:53;;;;;;;6.40;1.38;;;4.50;99.90;;;;;;4994370;28;20038;-78
2022/12/07 05:56:19;;;;;;;6.28;1.13;;;3.30;99.90;;;;;;4962568;28;20042;-79
2022/12/07 06:01:29;;;;;;;5.97;1.45;;;4.00;99.90;;;;;;4981370;28;20434;-79
2022/12/07 06:03:54;;;;;;;10.68;1.38;;;3.30;99.90;;;;;;4994394;28;20125;-78
2022/12/07 06:06:20;;;;;;;12.85;1.35;;;3.20;99.90;;;;;;4978118;28;20049;-78
2022/12/07 06:08:46;;;;;;;4.88;1.38;;;4.30;99.90;;;;;;4961638;28;20489;-78
2022/12/07 06:13:56;;;;;;;8.57;1.80;;;3.30;99.90;;;;;;4991939;28;20069;-78
2022/12/07 06:16:21;;;;;;;5.90;1.33;;;4.80;99.90;;;;;;4977577;28;20046;-78
2022/12/07 06:18:47;;;;;;;7.78;1.73;;;3.50;99.90;;;;;;4958100;28;20038;-79
2022/12/07 06:21:14;;;;;;;9.30;1.65;;;3.70;99.90;;;;;;4963297;28;20435;-79
2022/12/07 06:23:39;;;;;;;5.75;1.23;;;4.20;99.90;;;;;;4963261;28;20046;-79
2022/12/07 06:26:05;;;;;;;5.22;1.10;;;3.60;99.90;;;;;;4977548;28;20103;-78
2022/12/07 06:28:31;;;;;;;6.90;1.45;;;4.10;99.90;;;;;;4946075;28;20166;-79
2022/12/07 06:30:58;;;;;;;6.05;1.00;;;5.20;99.90;;;;;;4961563;28;20038;-78
2022/12/07 06:33:24;;;;;;;4.57;0.90;;;3.70;99.90;;;;;;4999473;28;20046;-79
2022/12/07 06:35:50;;;;;;;7.65;1.75;;;3.70;99.90;;;;;;4974025;28;20061;-79
2022/12/07 06:38:15;;;;;;;4.47;1.30;;;3.70;99.90;;;;;;4942475;28;20046;-79
2022/12/07 06:40:41;;;;;;;6.55;1.20;;;4.30;99.90;;;;;;4945429;28;20042;-79
2022/12/07 06:43:07;;;;;;;11.27;1.63;;;3.70;99.90;;;;;;4945323;28;20085;-79
2022/12/07 06:45:33;;;;;;;2.88;0.80;;;3.70;99.90;;;;;;4957577;28;20159;-79
2022/12/07 06:47:59;;;;;;;7.10;1.23;;;4.40;99.90;;;;;;4979801;28;20531;-78
2022/12/07 06:50:24;;;;;;;4.32;0.85;;;3.60;99.90;;;;;;4991620;28;20074;-79
2022/12/07 06:52:51;;;;;;;3.08;0.80;;;4.70;99.90;;;;;;4989206;28;20391;-79
2022/12/07 06:55:17;;;;;;;9.93;1.30;;;3.60;99.90;;;;;;4982492;28;20046;-79
2022/12/07 06:57:43;;;;;;;4.80;1.45;;;3.50;99.90;;;;;;4983573;28;20038;-79
2022/12/07 07:00:10;;;;;;;5.25;1.00;;;4.00;99.90;;;;;;4945081;28;20042;-79
2022/12/07 07:02:35;;;;;;;6.38;1.00;;;3.50;99.90;;;;;;4958821;28;20047;-79
2022/12/07 07:05:01;;;;;;;9.60;1.60;;;3.40;99.90;;;;;;4973136;28;20031;-77
2022/12/07 07:07:27;;;;;;;4.60;0.98;;;3.40;99.90;;;;;;4945717;28;20130;-78
2022/12/07 07:09:54;;;;;;;4.00;1.10;;;4.50;99.90;;;;;;4947347;28;20097;-78
2022/12/07 07:12:20;;;;;;;5.28;0.90;;;4.20;99.90;;;;;;4968029;28;20527;-81
2022/12/07 07:14:46;;;;;;;4.40;0.98;;;3.30;99.90;;;;;;4987862;28;20042;-79
2022/12/07 07:17:13;;;;;;;3.97;1.30;;;3.30;99.90;;;;;;4969943;28;20798;-78
2022/12/07 07:19:38;;;;;;;5.07;1.50;;;4.00;99.90;;;;;;5001630;28;20051;-77
2022/12/07 07:22:04;;;;;;;5.68;1.48;;;3.20;99.90;;;;;;4987873;28;20046;-76
2022/12/07 07:24:30;;;;;;;10.05;1.40;;;3.20;99.90;;;;;;4941458;28;20042;-77
2022/12/07 07:26:56;;;;;;;6.45;1.63;;;3.20;99.90;;;;;;4967519;28;20487;-77
2022/12/07 07:29:22;;;;;;;9.60;1.60;;;3.20;99.90;;;;;;4992287;28;20070;-77
2022/12/07 07:31:47;;;;;;;6.82;1.27;;;3.20;99.90;;;;;;4992897;28;20038;-78
2022/12/07 07:34:13;;;;;;;8.45;1.35;;;3.90;99.90;;;;;;4975147;28;20046;-78
2022/12/07 07:36:39;;;;;;;8.38;1.60;;;3.10;99.90;;;;;;4975687;28;20128;-77
2022/12/07 07:39:05;;;;;;;8.13;1.45;;;3.10;99.90;;;;;;4961159;28;20050;-77
2022/12/07 07:41:31;;;;;;;8.43;1.20;;;3.10;99.90;;;;;;4971157;28;20546;-78
2022/12/07 07:43:57;;;;;;;7.50;1.80;;;3.10;99.90;;;;;;4977039;28;20042;-78
2022/12/07 07:46:22;;;;;;;5.07;1.23;;;3.10;99.90;;;;;;4960114;28;20127;-78
2022/12/07 07:48:48;;;;;;;5.90;1.25;;;3.10;99.90;;;;;;4991351;28;20038;-79
2022/12/07 07:51:14;;;;;;;6.10;1.20;;;3.60;99.90;;;;;;4992746;28;20050;-77
2022/12/07 07:53:40;;;;;;;7.78;1.52;;;3.60;99.90;;;;;;4985412;28;20407;-76
2022/12/07 07:56:05;;;;;;;9.73;1.77;;;3.70;99.90;;;;;;4959232;28;20042;-79
2022/12/07 07:58:31;;;;;;;6.30;1.60;;;3.10;99.90;;;;;;4973481;28;20042;-78
2022/12/07 08:00:57;;;;;;;12.40;2.28;;;3.30;99.90;;;;;;4952938;28;20606;-78
2022/12/07 08:03:22;;;;;;;10.52;1.83;;;4.30;99.90;;;;;;4976344;28;20046;-77
2022/12/07 08:05:48;;;;;;;7.72;2.38;;;3.30;99.90;;;;;;4960139;28;20046;-77
2022/12/07 08:08:14;;;;;;;8.73;2.05;;;3.90;99.90;;;;;;4960453;28;20406;-78
2022/12/07 08:10:39;;;;;;;6.68;2.33;;;3.30;99.90;;;;;;4957841;28;20120;-78
2022/12/07 08:13:11;;;;;;;8.63;2.25;;;3.70;99.90;;;;;;4976179;28;20058;-78
2022/12/07 08:15:38;;;;;;;7.38;2.60;;;4.30;99.90;;;;;;4976853;28;20503;-78
2022/12/07 08:18:04;;;;;;;12.02;2.38;;;3.30;99.90;;;;;;4974690;28;20037;-78
2022/12/07 08:20:31;;;;;;;9.95;2.42;;;3.50;99.90;;;;;;4992364;28;20049;-78
2022/12/07 08:22:57;;;;;;;10.23;2.28;;;3.40;99.90;;;;;;4992256;28;20066;-78
2022/12/07 08:25:23;;;;;;;7.82;2.28;;;3.40;99.90;;;;;;4975129;28;20554;-78
2022/12/07 08:27:50;;;;;;;8.07;1.85;;;3.60;99.90;;;;;;4960257;28;20070;-78
2022/12/07 08:30:16;;;;;;;8.98;2.15;;;3.90;99.90;;;;;;4976116;28;20131;-78
2022/12/07 08:32:42;;;;;;;8.70;2.30;;;3.50;99.90;;;;;;4976366;28;20057;-78
2022/12/07 08:35:08;;;;;;;11.52;2.55;;;4.10;99.90;;;;;;4956352;28;20121;-77
2022/12/07 08:37:34;;;;;;;9.73;2.20;;;3.60;99.90;;;;;;4985635;28;20043;-78
2022/12/07 08:39:59;;;;;;;9.93;2.15;;;3.60;99.90;;;;;;4986602;28;20102;-78
2022/12/07 08:42:29;;;;;;;14.48;2.10;;;3.60;99.90;;;;;;4942031;28;20097;-78
2022/12/07 08:44:58;;;;;;;9.93;2.10;;;4.80;99.90;;;;;;4994845;28;20046;-76
2022/12/07 08:47:25;;;;;;;11.75;2.20;;;3.60;99.90;;;;;;4994723;28;20579;-77
2022/12/07 08:49:53;;;;;;;9.10;2.03;;;3.60;99.90;;;;;;4975860;28;20050;-77
2022/12/07 08:52:18;;;;;;;9.63;2.17;;;4.30;99.90;;;;;;4978925;28;20042;-77
2022/12/07 08:54:44;;;;;;;10.35;2.10;;;4.80;99.90;;;;;;4963749;28;20042;-77
2022/12/07 08:57:11;;;;;;;13.82;1.95;;;4.90;99.90;;;;;;4979472;28;20097;-77
2022/12/07 08:59:37;;;;;;;8.95;1.75;;;3.70;99.90;;;;;;4978694;28;20398;-77
2022/12/07 09:02:05;;;;;;;10.45;1.95;;;3.70;99.90;;;;;;4979573;28;20085;-77
2022/12/07 09:04:31;;;;;;;10.63;2.20;;;4.00;99.90;;;;;;4979433;28;20049;-77
2022/12/07 09:06:57;;;;;;;10.70;2.30;;;3.90;99.90;;;;;;4963674;28;20184;-77
2022/12/07 09:09:23;;;;;;;11.45;2.20;;;4.10;99.90;;;;;;4995496;28;20049;-77
2022/12/07 09:11:48;;;;;;;10.77;1.98;;;5.30;99.90;;;;;;4979054;28;20065;-77
2022/12/07 09:14:14;;;;;;;9.15;2.25;;;4.60;99.90;;;;;;4943041;28;20041;-78
2022/12/07 09:16:40;;;;;;;11.05;1.70;;;4.30;99.90;;;;;;4960020;28;20039;-77
2022/12/07 09:19:07;;;;;;;10.95;1.67;;;4.30;99.90;;;;;;4975624;28;20561;-77
2022/12/07 09:21:33;;;;;;;6.28;2.25;;;4.70;99.90;;;;;;4959738;28;20051;-76
2022/12/07 09:23:58;;;;;;;8.32;1.83;;;5.00;99.90;;;;;;4967327;28;20047;-77
2022/12/07 09:26:24;;;;;;;5.72;1.38;;;5.70;99.90;;;;;;4975286;28;20046;-77
2022/12/07 09:28:50;;;;;;;12.18;1.55;;;5.20;99.90;;;;;;4995305;28;20546;-77
2022/12/07 09:31:16;;;;;;;6.88;1.45;;;5.20;99.90;;;;;;4962623;28;20039;-77
2022/12/07 09:33:42;;;;;;;7.50;1.30;;;5.40;99.90;;;;;;4978616;28;20038;-77
2022/12/07 09:36:09;;;;;;;7.82;1.30;;;5.50;99.90;;;;;;4962583;28;20042;-77
2022/12/07 09:38:35;;;;;;;8.80;1.40;;;5.50;99.90;;;;;;4961534;28;20049;-77
2022/12/07 09:41:06;;;;;;;9.07;1.67;;;6.60;99.90;;;;;;4978516;28;20546;-77
2022/12/07 09:43:34;;;;;;;4.32;1.13;;;5.90;99.90;;;;;;4979101;28;20050;-77
2022/12/07 09:46:00;;;;;;;8.13;1.83;;;6.10;99.90;;;;;;4978822;28;20425;-77
2022/12/07 09:48:36;;;;;;;7.63;1.45;;;5.90;99.90;;;;;;4962534;28;20042;-77
2022/12/07 09:51:03;;;;;;;7.03;1.67;;;5.80;99.90;;;;;;4978996;28;20566;-77
2022/12/07 09:53:37;;;;;;;6.05;1.33;;;5.70;99.90;;;;;;4973256;28;20525;-77
2022/12/07 09:56:04;;;;;;;10.10;1.98;;;5.80;99.90;;;;;;4964557;28;20057;-77
2022/12/07 09:58:31;;;;;;;9.95;2.22;;;5.50;99.90;;;;;;4979128;28;20085;-76
2022/12/07 10:01:00;;;;;;;8.77;1.70;;;5.50;99.90;;;;;;4994898;28;20046;-77
2022/12/07 10:03:28;;;;;;;5.78;1.23;;;5.50;99.90;;;;;;4994532;28;20145;-77
2022/12/07 10:05:54;;;;;;;8.25;1.55;;;5.70;99.90;;;;;;4994434;28;20053;-77
2022/12/07 10:08:20;;;;;;;6.28;1.63;;;6.10;99.90;;;;;;4994825;28;20034;-77
2022/12/07 10:10:51;;;;;;;10.85;1.70;;;7.30;99.90;;;;;;4992938;28;20053;-78
2022/12/07 10:13:22;;;;;;;7.95;1.40;;;7.40;99.90;;;;;;4978199;28;20055;-77
2022/12/07 10:15:52;;;;;;;6.47;1.85;;;7.60;99.90;;;;;;4975321;28;20523;-78
2022/12/07 10:18:20;;;;;;;9.73;1.95;;;7.50;99.90;;;;;;4993986;28;20050;-77
2022/12/07 10:20:48;;;;;;;5.45;1.45;;;7.40;99.90;;;;;;4977905;28;20042;-78
2022/12/07 10:23:16;;;;;;;7.47;2.33;;;7.70;99.90;;;;;;4977428;28;20501;-77
2022/12/07 10:25:42;;;;;;;9.23;1.95;;;8.10;99.90;;;;;;4993792;28;20125;-78
2022/12/07 10:28:08;;;;;;;5.20;1.30;;;8.60;99.90;;;;;;4978054;28;20121;-78
2022/12/07 10:30:46;;;;;;;8.57;1.80;;;8.80;99.90;;;;;;4994049;28;20093;-77
2022/12/07 10:33:27;;;;;;;9.32;1.67;;;9.10;99.90;;;;;;4977714;28;20046;-78
2022/12/07 10:35:53;;;;;;;7.03;1.50;;;9.00;99.90;;;;;;4977362;28;20126;-77
2022/12/07 10:38:19;;;;;;;6.53;1.70;;;8.90;99.90;;;;;;4968502;28;20047;-77
2022/12/07 10:40:44;;;;;;;6.88;1.75;;;8.90;99.90;;;;;;4965039;28;20048;-77
2022/12/07 10:43:13;;;;;;;5.57;1.70;;;8.70;99.90;;;;;;4993943;28;20046;-78
2022/12/07 10:46:03;;;;;;;8.52;1.33;;;8.50;99.90;;;;;;4992984;28;20070;-79
2022/12/07 10:49:22;;;;;;;10.48;1.88;;;8.20;99.90;;;;;;4992352;28;20430;-78
2022/12/07 10:52:11;;;;;;;6.13;1.67;;;7.90;99.90;;;;;;4950883;28;20073;-78
2022/12/07 10:55:02;;;;;;;7.80;1.63;;;7.60;99.90;;;;;;4987907;28;20088;-78
2022/12/07 10:57:49;;;;;;;8.20;1.77;;;7.20;99.90;;;;;;4974462;28;20042;-78
2022/12/07 11:00:22;;;;;;;7.38;2.03;;;6.90;99.90;;;;;;4985578;28;20043;-77
2022/12/07 11:03:27;;;;;;;9.45;1.45;;;6.60;99.90;;;;;;4964187;28;20034;-78
2022/12/07 11:06:28;;;;;;;5.72;1.38;;;6.40;99.90;;;;;;4965312;28;20061;-78
2022/12/07 11:09:03;;;;;;;8.07;1.33;;;6.20;99.90;;;;;;4941322;28;20053;-77
2022/12/07 11:11:43;;;;;;;7.05;1.75;;;6.10;99.90;;;;;;4977644;28;20383;-77
2022/12/07 11:14:15;;;;;;;6.70;1.30;;;6.00;99.90;;;;;;4974056;28;20037;-77
2022/12/07 11:16:59;;;;;;;5.38;1.15;;;6.00;99.90;;;;;;4966565;28;20034;-77
2022/12/07 11:19:51;;;;;;;8.43;1.90;;;6.00;99.90;;;;;;4976911;28;20463;-78
2022/12/07 11:22:24;;;;;;;6.68;1.50;;;6.00;99.90;;;;;;4951625;28;20038;-78
2022/12/07 11:25:21;;;;;;;5.78;1.58;;;6.10;99.90;;;;;;4973538;28;20126;-80
2022/12/07 11:28:12;;;;;;;7.82;1.60;;;6.10;99.90;;;;;;4951259;28;20602;-78
2022/12/07 11:30:52;;;;;;;9.85;1.50;;;6.10;99.90;;;;;;4990794;28;20046;-78
2022/12/07 11:33:37;;;;;;;5.90;1.55;;;6.10;99.90;;;;;;4993627;28;20654;-79
2022/12/07 11:36:12;;;;;;;7.70;1.40;;;6.10;99.90;;;;;;4976520;28;20121;-79
2022/12/07 11:38:52;;;;;;;6.50;1.70;;;6.10;99.90;;;;;;5004911;28;20506;-79
2022/12/07 11:41:24;;;;;;;8.15;1.65;;;6.10;99.90;;;;;;4991251;28;20038;-78
2022/12/07 11:43:56;;;;;;;11.25;2.22;;;7.20;99.90;;;;;;4974445;28;20061;-77
2022/12/07 11:46:27;;;;;;;13.70;2.33;;;6.20;99.90;;;;;;5001051;28;20047;-78
2022/12/07 11:49:12;;;;;;;10.02;1.90;;;6.30;99.90;;;;;;4976713;28;20434;-78
2022/12/07 11:51:40;;;;;;;8.60;2.28;;;6.50;99.90;;;;;;4991182;28;20030;-77
2022/12/07 11:54:26;;;;;;;15.77;2.50;;;6.50;99.90;;;;;;4976317;28;20042;-81
2022/12/07 11:56:55;;;;;;;9.73;1.88;;;6.50;99.90;;;;;;4976331;28;20037;-78
2022/12/07 11:59:36;;;;;;;7.78;1.85;;;6.50;99.90;;;;;;4989270;28;20387;-78
2022/12/07 12:02:22;;;;;;;8.40;1.83;;;6.50;99.90;;;;;;4957507;28;20042;-79
2022/12/07 12:04:56;;;;;;;4.50;1.10;;;6.40;99.90;;;;;;4977268;28;20039;-78
2022/12/07 12:07:25;;;;;;;7.28;1.20;;;6.30;99.90;;;;;;4973894;28;20034;-78
2022/12/07 12:10:02;;;;;;;7.20;1.50;;;6.40;99.90;;;;;;4988471;28;20039;-78
2022/12/07 12:12:46;;;;;;;5.70;1.35;;;6.30;99.90;;;;;;4978158;28;20423;-79
2022/12/07 12:15:42;;;;;;;13.77;2.10;;;6.50;99.90;;;;;;4972116;28;20047;-78
2022/12/07 12:18:11;;;;;;;8.63;1.67;;;6.30;99.90;;;;;;4980307;28;20042;-79
2022/12/07 12:20:49;;;;;;;10.68;1.60;;;6.30;99.90;;;;;;4993041;28;20088;-78
2022/12/07 12:23:17;;;;;;;7.43;1.70;;;6.30;99.90;;;;;;4993424;28;20034;-80
2022/12/07 12:25:47;;;;;;;10.55;2.08;;;6.40;99.90;;;;;;4993065;28;20112;-79
2022/12/07 12:28:29;;;;;;;9.00;1.73;;;6.50;99.90;;;;;;4996100;28;20038;-79
2022/12/07 12:31:20;;;;;;;9.93;1.73;;;6.50;99.90;;;;;;4995841;28;20066;-79
2022/12/07 12:33:57;;;;;;;10.77;2.63;;;6.60;99.90;;;;;;4995133;28;20042;-79
2022/12/07 12:36:27;;;;;;;11.98;2.17;;;6.70;99.90;;;;;;4979150;28;20046;-79
2022/12/07 12:38:59;;;;;;;5.45;1.73;;;6.70;99.90;;;;;;4979900;28;20133;-79
2022/12/07 12:44:40;;;;;;;11.32;2.38;;;6.70;99.90;;;;;;4960181;28;20100;-79
2022/12/07 12:47:40;;;;;;;9.25;1.15;;;6.80;99.90;;;;;;4979514;28;20048;-78
2022/12/07 12:50:21;;;;;;;6.15;1.50;;;6.80;99.90;;;;;;4994477;28;20577;-79
2022/12/07 12:53:03;;;;;;;5.85;1.60;;;6.70;99.90;;;;;;4996001;28;20426;-79
2022/12/07 12:55:41;;;;;;;6.90;1.65;;;6.70;99.90;;;;;;4976266;28;20047;-78
2022/12/07 12:58:19;;;;;;;5.93;1.10;;;6.70;99.90;;;;;;4963189;28;20097;-79
2022/12/07 13:00:47;;;;;;;7.15;1.40;;;6.70;99.90;;;;;;4989932;28;20434;-78
2022/12/07 13:03:31;;;;;;;7.35;1.48;;;6.70;99.90;;;;;;4978354;28;20050;-79
2022/12/07 13:06:35;;;;;;;3.65;1.38;;;6.70;99.90;;;;;;4963335;28;20128;-78
2022/12/07 13:09:01;;;;;;;5.88;1.30;;;6.70;99.90;;;;;;4950012;28;20046;-78
2022/12/07 13:11:38;;;;;;;7.93;1.50;;;6.70;99.90;;;;;;4960566;28;20042;-79
2022/12/07 13:14:40;;;;;;;6.60;1.33;;;6.70;99.90;;;;;;4959218;28;20097;-79
2022/12/07 13:17:31;;;;;;;6.18;1.80;;;6.70;99.90;;;;;;4975765;28;20086;-79
2022/12/07 13:20:02;;;;;;;6.55;1.10;;;7.50;99.90;;;;;;4973717;28;20074;-79
2022/12/07 13:22:31;;;;;;;6.72;1.33;;;6.70;99.90;;;;;;4975733;28;20134;-79
2022/12/07 13:24:59;;;;;;;5.10;1.20;;;7.90;99.90;;;;;;4986112;28;20043;-79
2022/12/07 13:27:26;;;;;;;4.80;1.30;;;6.60;99.90;;;;;;4995220;28;20038;-79